Time;durP1;ratioP1;P1;durP2;ratioP2;P2;SDS_P1;SDS_P2;PMS_P1;PMS_P2;Temp;Humidity;BMP_temperature;BMP_pressure;BME280_temperature;BME280_humidity;BME280_pressure;Samples;Min_cycle;Max_cycle;Signal;HPM_P1;HPM_P2
2022/01/20 00:02:20;;;;;;;9.95;2.33;;;4.70;99.90;;;;;;5034422;28;20070;-77
2022/01/20 00:05:05;;;;;;;4.85;1.90;;;4.60;99.90;;;;;;5065105;28;20393;-77
2022/01/20 00:26:25;;;;;;;5.70;2.22;;;5.00;99.90;;;;;;5036133;28;20056;-78
2022/01/20 00:28:56;;;;;;;5.32;2.38;;;5.00;99.90;;;;;;5038925;28;20131;-78
2022/01/20 00:33:56;;;;;;;10.00;3.50;;;5.00;99.90;;;;;;5040407;28;20921;-78
2022/01/20 00:39:05;;;;;;;5.18;2.25;;;4.90;99.90;;;;;;5038002;28;20045;-77
2022/01/20 00:41:31;;;;;;;7.75;2.72;;;4.90;99.90;;;;;;5040557;28;20059;-77
2022/01/20 00:43:57;;;;;;;6.15;2.10;;;4.90;99.90;;;;;;5039025;28;20053;-78
2022/01/20 00:46:22;;;;;;;6.93;2.17;;;4.90;99.90;;;;;;5039832;28;20146;-77
2022/01/20 00:48:48;;;;;;;5.78;2.60;;;4.80;99.90;;;;;;5039052;28;20060;-77
2022/01/20 00:51:14;;;;;;;8.95;3.25;;;4.80;99.90;;;;;;5039912;28;20827;-75
2022/01/20 00:53:44;;;;;;;8.65;2.45;;;4.80;99.90;;;;;;5039412;28;20045;-75
2022/01/20 00:56:13;;;;;;;6.45;2.60;;;4.80;99.90;;;;;;5040830;28;20080;-74
2022/01/20 00:58:39;;;;;;;7.82;2.17;;;4.90;99.90;;;;;;5038840;28;20049;-75
2022/01/20 01:01:05;;;;;;;6.35;2.15;;;4.90;99.90;;;;;;5039530;28;20065;-75
2022/01/20 01:03:31;;;;;;;9.70;3.08;;;4.90;99.90;;;;;;5039759;28;20214;-75
2022/01/20 01:08:41;;;;;;;5.68;2.25;;;5.00;99.90;;;;;;5038327;28;20063;-75
2022/01/20 01:11:07;;;;;;;9.73;2.30;;;5.00;99.90;;;;;;5036497;28;20044;-75
2022/01/20 01:13:32;;;;;;;6.60;3.00;;;5.00;99.90;;;;;;5038784;28;20048;-76
2022/01/20 01:15:58;;;;;;;7.15;2.55;;;5.00;99.90;;;;;;5038008;28;20056;-76
2022/01/20 01:23:37;;;;;;;6.30;2.05;;;5.10;99.90;;;;;;5037887;28;20150;-75
2022/01/20 01:26:05;;;;;;;6.05;2.20;;;5.10;99.90;;;;;;5038798;28;20041;-74
2022/01/20 01:28:32;;;;;;;9.68;2.17;;;5.10;99.90;;;;;;5040278;28;20048;-75
2022/01/20 01:31:11;;;;;;;5.72;2.00;;;5.10;99.90;;;;;;5038381;28;20053;-73
2022/01/20 01:33:40;;;;;;;5.90;1.80;;;5.00;99.90;;;;;;5038120;28;20052;-74
2022/01/20 01:36:08;;;;;;;3.45;1.60;;;5.10;99.90;;;;;;5040016;28;20572;-74
2022/01/20 01:38:38;;;;;;;4.55;1.63;;;5.00;99.90;;;;;;5037702;28;20777;-74
2022/01/20 01:41:09;;;;;;;9.35;1.77;;;5.00;99.90;;;;;;5038881;28;20057;-74
2022/01/20 01:43:36;;;;;;;5.55;1.45;;;4.90;99.90;;;;;;5038876;28;20836;-74
2022/01/20 01:46:02;;;;;;;2.50;1.08;;;4.90;99.90;;;;;;5037934;28;20061;-74
2022/01/20 01:48:28;;;;;;;5.38;1.70;;;4.80;99.90;;;;;;5040033;28;20044;-74
2022/01/20 01:50:55;;;;;;;6.00;1.58;;;4.70;99.90;;;;;;5037877;28;20064;-74
2022/01/20 01:53:20;;;;;;;7.30;1.73;;;4.70;99.90;;;;;;5037553;28;20057;-75
2022/01/20 01:55:46;;;;;;;8.40;1.52;;;4.70;99.90;;;;;;5038807;28;20091;-75
2022/01/20 01:58:12;;;;;;;4.18;1.20;;;4.60;99.90;;;;;;5038616;28;20041;-75
2022/01/20 02:00:37;;;;;;;5.10;1.88;;;4.60;99.90;;;;;;5038652;28;20049;-76
2022/01/20 02:03:03;;;;;;;3.47;2.50;;;4.70;99.90;;;;;;5039694;28;20044;-76
2022/01/20 02:05:31;;;;;;;3.80;1.35;;;4.70;99.90;;;;;;5039842;28;20059;-76
2022/01/20 02:18:46;;;;;;;3.22;1.52;;;4.80;99.90;;;;;;5039421;28;20142;-77
2022/01/20 02:21:12;;;;;;;3.63;1.60;;;4.80;99.90;;;;;;5039278;28;20487;-76
2022/01/20 02:23:37;;;;;;;8.95;2.55;;;4.90;99.90;;;;;;5038514;28;20052;-75
2022/01/20 02:26:03;;;;;;;3.67;1.63;;;4.90;99.90;;;;;;5039390;28;20723;-75
2022/01/20 02:28:29;;;;;;;5.93;1.77;;;4.90;99.90;;;;;;5039843;28;20107;-75
2022/01/20 02:30:55;;;;;;;5.88;2.35;;;5.00;99.90;;;;;;5038118;28;20110;-75
2022/01/20 02:33:23;;;;;;;4.50;2.30;;;5.00;99.90;;;;;;5038248;28;20096;-75
2022/01/20 02:35:57;;;;;;;10.82;2.90;;;5.00;99.90;;;;;;5037922;28;20045;-74
2022/01/20 02:38:32;;;;;;;6.85;2.88;;;4.90;99.90;;;;;;5039834;28;20071;-74
2022/01/20 02:46:31;;;;;;;9.00;3.10;;;4.60;99.90;;;;;;5040069;28;20067;-73
2022/01/20 02:48:57;;;;;;;6.38;2.70;;;4.50;99.90;;;;;;5037878;28;20056;-75
2022/01/20 02:51:23;;;;;;;6.50;3.10;;;4.50;99.90;;;;;;5038915;28;20045;-74
2022/01/20 02:53:49;;;;;;;5.55;3.00;;;4.50;99.90;;;;;;5038359;28;20148;-74
2022/01/20 02:56:14;;;;;;;9.60;3.67;;;4.50;99.90;;;;;;5039207;28;20056;-75
2022/01/20 02:58:41;;;;;;;6.93;3.33;;;4.50;99.90;;;;;;5037518;28;20064;-74
2022/01/20 03:01:07;;;;;;;11.30;3.17;;;4.50;99.90;;;;;;5038260;28;20076;-74
2022/01/20 03:03:34;;;;;;;9.25;2.67;;;4.50;99.90;;;;;;5037765;28;20121;-74
2022/01/20 03:06:00;;;;;;;6.55;3.20;;;4.50;99.90;;;;;;5037265;28;20044;-74
2022/01/20 03:08:27;;;;;;;14.35;3.25;;;4.60;99.90;;;;;;5030464;28;20479;-76
2022/01/20 03:10:52;;;;;;;9.18;3.30;;;4.60;99.90;;;;;;5037764;28;20056;-74
2022/01/20 03:13:18;;;;;;;17.25;4.15;;;4.70;99.90;;;;;;5037196;28;20157;-75
2022/01/20 03:15:44;;;;;;;12.13;3.95;;;4.80;99.90;;;;;;5037616;28;20580;-74
2022/01/20 03:18:10;;;;;;;8.90;3.80;;;4.80;99.90;;;;;;5037244;28;20110;-74
2022/01/20 03:20:35;;;;;;;16.50;4.78;;;4.90;99.90;;;;;;5038989;28;20048;-74
2022/01/20 03:23:02;;;;;;;17.20;5.05;;;4.90;99.90;;;;;;5037527;28;20135;-74
2022/01/20 03:25:28;;;;;;;8.65;3.63;;;4.80;99.90;;;;;;5036463;28;20126;-74
2022/01/20 03:27:54;;;;;;;8.70;3.47;;;4.70;99.90;;;;;;5039061;28;20045;-74
2022/01/20 03:30:20;;;;;;;9.30;3.58;;;4.70;99.90;;;;;;5037874;28;20126;-74
2022/01/20 03:32:46;;;;;;;16.80;3.78;;;4.60;99.90;;;;;;5037876;28;20152;-74
2022/01/20 03:35:12;;;;;;;11.40;4.15;;;4.60;99.90;;;;;;5037784;28;20044;-74
2022/01/20 03:37:38;;;;;;;10.32;3.78;;;4.60;99.90;;;;;;5037231;28;20045;-74
2022/01/20 03:40:05;;;;;;;16.48;4.88;;;4.50;99.90;;;;;;5030197;28;20049;-74
2022/01/20 03:42:31;;;;;;;11.18;4.50;;;4.50;99.90;;;;;;5033375;28;20160;-74
2022/01/20 03:44:56;;;;;;;12.63;5.43;;;4.50;99.90;;;;;;5037166;28;20060;-74
2022/01/20 03:47:25;;;;;;;20.42;5.63;;;4.50;99.90;;;;;;5032568;28;20136;-74
2022/01/20 03:49:55;;;;;;;20.00;4.63;;;4.50;99.90;;;;;;5035161;28;20591;-74
2022/01/20 03:52:21;;;;;;;13.20;5.50;;;4.50;99.90;;;;;;5036283;28;20056;-74
2022/01/20 03:54:46;;;;;;;14.45;6.53;;;4.50;99.90;;;;;;5030340;28;20044;-73
2022/01/20 03:57:12;;;;;;;8.23;3.67;;;4.50;99.90;;;;;;5036783;28;20057;-73
2022/01/20 03:59:38;;;;;;;11.02;3.95;;;4.50;99.90;;;;;;5037563;28;20045;-74
2022/01/20 04:02:05;;;;;;;16.63;4.20;;;4.60;99.90;;;;;;5035408;28;20120;-74
2022/01/20 04:04:31;;;;;;;13.38;4.68;;;4.60;99.90;;;;;;5035975;28;20125;-75
2022/01/20 04:06:56;;;;;;;7.57;2.70;;;4.70;99.90;;;;;;5035225;28;20591;-74
2022/01/20 04:09:22;;;;;;;6.40;2.80;;;4.70;99.90;;;;;;5036317;28;22656;-74
2022/01/20 04:11:49;;;;;;;7.97;2.72;;;4.60;99.90;;;;;;5036108;28;20144;-73
2022/01/20 04:14:14;;;;;;;11.27;2.70;;;4.50;99.90;;;;;;5035783;28;20051;-74
2022/01/20 04:19:16;;;;;;;6.75;2.40;;;4.50;99.10;;;;;;5035181;28;20415;-73
2022/01/20 04:21:42;;;;;;;4.88;2.38;;;4.40;99.90;;;;;;5036195;28;20055;-74
2022/01/20 04:24:09;;;;;;;5.15;2.35;;;4.40;99.90;;;;;;5037498;28;20045;-74
2022/01/20 04:26:35;;;;;;;4.68;2.10;;;4.50;99.90;;;;;;5035665;28;20065;-74
2022/01/20 04:29:02;;;;;;;7.97;2.55;;;4.50;99.90;;;;;;5037308;28;20799;-74
2022/01/20 04:31:30;;;;;;;4.03;2.10;;;4.50;99.90;;;;;;5037812;28;20060;-74
2022/01/20 04:33:57;;;;;;;8.77;4.53;;;4.60;99.60;;;;;;5036308;28;20044;-73
2022/01/20 04:36:24;;;;;;;4.55;2.35;;;4.60;99.90;;;;;;5036425;28;20057;-74
2022/01/20 04:38:50;;;;;;;7.65;2.42;;;4.60;99.90;;;;;;5036525;28;20381;-74
2022/01/20 04:41:15;;;;;;;5.55;2.17;;;4.60;99.80;;;;;;5037070;28;20076;-74
2022/01/20 04:43:41;;;;;;;12.63;3.70;;;4.60;99.90;;;;;;5037523;28;20065;-75
2022/01/20 04:46:15;;;;;;;6.72;2.00;;;4.70;99.90;;;;;;5035776;28;20163;-75
2022/01/20 04:59:23;;;;;;;7.68;2.45;;;4.70;99.90;;;;;;5037115;28;20087;-75
2022/01/20 05:01:49;;;;;;;11.13;2.88;;;4.60;99.90;;;;;;5034784;28;20258;-75
2022/01/20 05:04:14;;;;;;;10.88;2.78;;;4.50;99.90;;;;;;5035512;28;20053;-75
2022/01/20 05:06:42;;;;;;;7.03;2.70;;;4.50;99.90;;;;;;5035459;28;20487;-75
2022/01/20 05:09:10;;;;;;;3.40;2.40;;;4.40;99.90;;;;;;5036586;28;20060;-75
2022/01/20 05:11:42;;;;;;;7.13;3.15;;;4.30;99.90;;;;;;5035931;28;20056;-74
2022/01/20 05:14:07;;;;;;;7.72;2.47;;;4.30;99.90;;;;;;5038419;28;20061;-75
2022/01/20 05:16:33;;;;;;;5.30;3.33;;;4.20;99.90;;;;;;5039757;28;20048;-75
2022/01/20 05:18:58;;;;;;;9.85;3.00;;;4.20;99.90;;;;;;5039478;28;20941;-74
2022/01/20 05:21:24;;;;;;;5.40;3.03;;;4.20;99.90;;;;;;5040323;28;20052;-75
2022/01/20 05:23:49;;;;;;;8.60;2.17;;;4.20;99.90;;;;;;5039210;28;20085;-75
2022/01/20 05:26:15;;;;;;;2.55;1.73;;;4.20;99.90;;;;;;5040928;28;20083;-76
2022/01/20 05:28:40;;;;;;;7.75;2.60;;;4.20;99.90;;;;;;5039251;28;20680;-75
2022/01/20 05:31:06;;;;;;;4.22;1.85;;;4.10;99.90;;;;;;5036516;28;20154;-75
2022/01/20 05:33:31;;;;;;;3.58;1.05;;;4.00;99.90;;;;;;5039389;28;20044;-75
2022/01/20 05:35:57;;;;;;;2.67;1.33;;;4.00;99.90;;;;;;5072231;28;20053;-75
2022/01/20 05:38:23;;;;;;;9.25;2.20;;;3.90;99.90;;;;;;5039470;28;20042;-75
2022/01/20 05:40:49;;;;;;;4.10;1.60;;;3.90;99.90;;;;;;5038763;28;20118;-75
2022/01/20 05:43:15;;;;;;;3.40;1.50;;;3.80;99.90;;;;;;5037893;28;20571;-75
2022/01/20 05:45:40;;;;;;;7.38;1.92;;;3.80;99.90;;;;;;5038052;28;20048;-76
2022/01/20 05:48:17;;;;;;;1.88;1.60;;;3.70;99.90;;;;;;5067154;28;20109;-77
2022/01/20 05:50:44;;;;;;;6.03;1.83;;;3.70;99.90;;;;;;5064912;28;20515;-75
2022/01/20 05:53:10;;;;;;;7.43;2.35;;;3.60;99.90;;;;;;5036266;28;20045;-76
2022/01/20 05:55:37;;;;;;;5.43;2.90;;;3.60;99.90;;;;;;5037091;28;20052;-76
2022/01/20 05:58:04;;;;;;;4.55;2.70;;;3.60;99.90;;;;;;5037051;28;20103;-76
2022/01/20 06:00:31;;;;;;;5.25;2.22;;;3.60;99.90;;;;;;5037404;28;20087;-75
2022/01/20 06:05:41;;;;;;;5.70;2.85;;;3.60;99.90;;;;;;5068933;28;20053;-75
2022/01/20 06:08:07;;;;;;;9.40;2.72;;;3.60;99.90;;;;;;5036964;28;20072;-76
2022/01/20 06:10:33;;;;;;;8.27;3.05;;;3.60;99.90;;;;;;5069467;28;20761;-76
2022/01/20 06:12:59;;;;;;;5.10;2.28;;;3.60;99.90;;;;;;5069008;28;20049;-75
2022/01/20 06:15:25;;;;;;;13.20;4.80;;;3.70;99.90;;;;;;5069163;28;20519;-75
2022/01/20 06:17:50;;;;;;;11.13;3.80;;;3.70;99.90;;;;;;5036223;28;20151;-75
2022/01/20 06:20:16;;;;;;;11.20;3.25;;;3.80;99.90;;;;;;5035414;28;20083;-76
2022/01/20 06:22:41;;;;;;;10.38;3.13;;;3.90;99.90;;;;;;5029799;28;20048;-75
2022/01/20 06:25:08;;;;;;;8.07;2.83;;;3.90;99.90;;;;;;5026687;28;20085;-75
2022/01/20 06:27:34;;;;;;;15.38;4.40;;;3.90;99.90;;;;;;5027944;28;20033;-76
2022/01/20 06:30:00;;;;;;;9.05;3.65;;;3.90;99.90;;;;;;5032963;28;20048;-75
2022/01/20 06:32:26;;;;;;;14.27;3.47;;;3.90;99.90;;;;;;5063100;28;20044;-77
2022/01/20 06:34:51;;;;;;;11.43;3.60;;;4.00;99.90;;;;;;5061985;28;20079;-76
2022/01/20 06:37:17;;;;;;;8.60;2.45;;;4.00;99.90;;;;;;5034088;28;20412;-76
2022/01/20 06:39:43;;;;;;;9.07;3.10;;;4.10;99.90;;;;;;5028910;28;20511;-74
2022/01/20 06:42:08;;;;;;;11.20;3.28;;;4.10;99.90;;;;;;5036651;28;20055;-75
2022/01/20 06:44:34;;;;;;;7.10;3.80;;;4.10;99.90;;;;;;5036004;28;20176;-75
2022/01/20 06:46:59;;;;;;;8.00;3.50;;;4.30;99.90;;;;;;5036970;28;20485;-74
2022/01/20 06:49:25;;;;;;;8.77;3.13;;;3.80;99.90;;;;;;5034924;28;20052;-76
2022/01/20 06:51:50;;;;;;;5.32;2.33;;;3.50;99.90;;;;;;5035102;28;20044;-75
2022/01/20 06:54:16;;;;;;;5.88;2.38;;;3.40;99.90;;;;;;5037372;28;20136;-76
2022/01/20 06:56:42;;;;;;;8.25;3.20;;;3.30;99.90;;;;;;5069222;28;20045;-75
2022/01/20 06:59:14;;;;;;;11.20;3.35;;;3.30;99.90;;;;;;5038415;28;20646;-75
2022/01/20 07:01:42;;;;;;;12.70;2.60;;;3.30;99.90;;;;;;5036864;28;20053;-75
2022/01/20 07:04:10;;;;;;;5.30;2.45;;;3.20;99.90;;;;;;5038714;28;20053;-75
2022/01/20 07:06:36;;;;;;;5.47;2.47;;;3.20;99.90;;;;;;5036529;28;20135;-75
2022/01/20 07:09:02;;;;;;;7.45;2.33;;;3.20;99.90;;;;;;5036063;28;20441;-75
2022/01/20 07:11:30;;;;;;;2.83;1.73;;;3.20;99.90;;;;;;5035856;28;20163;-75
2022/01/20 07:13:55;;;;;;;11.60;3.45;;;3.10;99.90;;;;;;5036780;28;20135;-75
2022/01/20 07:16:21;;;;;;;17.20;4.07;;;3.10;99.90;;;;;;5035488;28;20056;-73
2022/01/20 07:18:46;;;;;;;5.90;1.85;;;3.10;99.90;;;;;;5036643;28;20049;-74
2022/01/20 07:21:12;;;;;;;7.13;2.60;;;3.20;99.90;;;;;;5037665;28;20044;-74
2022/01/20 07:23:37;;;;;;;5.53;2.58;;;3.10;99.90;;;;;;5038540;28;20582;-74
2022/01/20 07:26:04;;;;;;;7.20;2.05;;;3.20;99.90;;;;;;5038773;28;20060;-74
2022/01/20 07:28:29;;;;;;;11.05;2.55;;;3.20;99.90;;;;;;5037399;28;20164;-74
2022/01/20 07:30:55;;;;;;;6.45;2.10;;;3.30;99.90;;;;;;5036287;28;20126;-73
2022/01/20 07:33:20;;;;;;;12.50;2.80;;;3.30;99.90;;;;;;5038029;28;20055;-75
2022/01/20 07:35:47;;;;;;;4.85;2.90;;;3.40;99.90;;;;;;5038077;28;20052;-75
2022/01/20 07:38:12;;;;;;;9.02;3.33;;;3.50;99.90;;;;;;5036724;28;20598;-75
2022/01/20 07:40:38;;;;;;;7.40;2.85;;;3.50;99.90;;;;;;5037718;28;20040;-74
2022/01/20 07:43:04;;;;;;;3.00;2.33;;;3.40;99.90;;;;;;5036031;28;20057;-74
2022/01/20 07:45:30;;;;;;;7.55;2.30;;;3.40;99.90;;;;;;5037412;28;20099;-74
2022/01/20 07:47:55;;;;;;;3.83;2.08;;;3.50;99.90;;;;;;5038165;28;20040;-74
2022/01/20 07:50:21;;;;;;;2.58;2.05;;;3.50;99.90;;;;;;5035597;28;20111;-75
2022/01/20 07:52:47;;;;;;;8.55;2.50;;;3.40;99.90;;;;;;5036558;28;20048;-73
2022/01/20 07:55:14;;;;;;;11.32;3.03;;;3.50;99.90;;;;;;5038428;28;20053;-75
2022/01/20 07:57:39;;;;;;;5.30;2.40;;;3.50;99.90;;;;;;5037085;28;20049;-75
2022/01/20 08:00:07;;;;;;;3.33;2.08;;;3.60;99.90;;;;;;5036908;28;20099;-73
2022/01/20 08:02:32;;;;;;;7.70;3.08;;;3.50;99.90;;;;;;5036324;28;20464;-73
2022/01/20 08:04:58;;;;;;;4.70;2.00;;;3.10;99.90;;;;;;5036639;28;20159;-72
2022/01/20 08:07:24;;;;;;;5.95;2.20;;;3.00;99.90;;;;;;5036664;28;20084;-73
2022/01/20 08:09:56;;;;;;;6.38;1.92;;;3.00;99.90;;;;;;5036274;28;20050;-72
2022/01/20 08:12:22;;;;;;;7.90;2.60;;;2.90;99.90;;;;;;5037783;28;20683;-73
2022/01/20 08:14:48;;;;;;;2.97;2.17;;;2.90;99.90;;;;;;5036425;28;20099;-73
2022/01/20 08:17:13;;;;;;;6.65;3.10;;;3.00;99.90;;;;;;5037411;28;21056;-73
2022/01/20 08:19:39;;;;;;;8.98;3.28;;;3.00;99.90;;;;;;5037697;28;20040;-73
2022/01/20 08:22:05;;;;;;;6.35;2.50;;;3.00;99.90;;;;;;5037375;28;20135;-71
2022/01/20 08:24:30;;;;;;;7.57;3.85;;;3.10;99.90;;;;;;5037555;28;20049;-73
2022/01/20 08:26:56;;;;;;;5.90;2.30;;;3.10;99.90;;;;;;5036517;28;20080;-73
2022/01/20 08:29:21;;;;;;;15.00;3.05;;;3.10;99.90;;;;;;5036483;28;20179;-74
2022/01/20 08:31:47;;;;;;;11.25;3.30;;;3.10;99.90;;;;;;5038174;28;20052;-74
2022/01/20 08:34:12;;;;;;;6.28;2.70;;;3.10;99.90;;;;;;5035483;28;20140;-76
2022/01/20 08:36:38;;;;;;;6.00;2.83;;;3.20;99.90;;;;;;5035906;28;20794;-74
2022/01/20 08:39:20;;;;;;;7.95;2.67;;;3.20;99.90;;;;;;5036213;28;20059;-79
2022/01/20 08:41:46;;;;;;;6.90;3.05;;;3.30;99.90;;;;;;5034646;28;20063;-79
2022/01/20 08:44:11;;;;;;;8.80;4.25;;;3.40;99.90;;;;;;5036969;28;20053;-81
2022/01/20 08:46:41;;;;;;;9.85;2.97;;;3.50;99.90;;;;;;5034771;28;20056;-74
2022/01/20 08:49:07;;;;;;;4.88;2.35;;;3.50;99.90;;;;;;5036771;28;20178;-76
2022/01/20 08:51:32;;;;;;;8.75;3.28;;;3.60;99.90;;;;;;5041096;28;20053;-76
2022/01/20 08:53:58;;;;;;;8.07;3.58;;;3.60;99.90;;;;;;5039571;28;20091;-74
2022/01/20 08:56:23;;;;;;;7.15;2.55;;;3.70;99.90;;;;;;5071131;28;20045;-76
2022/01/20 08:58:49;;;;;;;6.03;2.05;;;3.90;99.90;;;;;;5034528;28;20065;-74
2022/01/20 09:01:14;;;;;;;5.45;2.30;;;4.10;99.90;;;;;;5036860;28;20049;-78
2022/01/20 09:03:42;;;;;;;7.55;3.05;;;4.20;99.90;;;;;;5034279;28;20048;-75
2022/01/20 09:06:08;;;;;;;1.92;1.10;;;3.90;99.90;;;;;;5069261;28;20057;-75
2022/01/20 09:08:34;;;;;;;5.70;1.30;;;3.60;99.90;;;;;;5037730;28;20086;-75
2022/01/20 09:11:01;;;;;;;2.15;1.05;;;3.40;99.90;;;;;;5037972;28;20476;-77
2022/01/20 09:16:11;;;;;;;3.85;1.30;;;3.30;99.90;;;;;;5036524;28;20052;-77
2022/01/20 09:18:37;;;;;;;3.83;1.70;;;3.30;99.90;;;;;;5069163;28;20408;-76
2022/01/20 09:21:02;;;;;;;4.03;2.15;;;3.30;99.90;;;;;;5035914;28;20072;-76
2022/01/20 09:23:28;;;;;;;5.78;1.60;;;3.30;99.90;;;;;;5069071;28;20045;-75
2022/01/20 09:25:54;;;;;;;4.63;2.38;;;3.40;99.90;;;;;;5037708;28;20049;-76
2022/01/20 09:28:19;;;;;;;6.95;2.10;;;3.50;99.90;;;;;;5036642;28;20045;-76
2022/01/20 09:30:46;;;;;;;4.65;1.60;;;3.70;99.90;;;;;;5037235;28;20044;-76
2022/01/20 09:33:24;;;;;;;12.10;2.50;;;3.90;99.90;;;;;;5069978;28;20591;-76
2022/01/20 09:35:49;;;;;;;5.57;2.10;;;3.80;99.90;;;;;;5069123;28;20128;-80
2022/01/20 09:38:16;;;;;;;2.75;1.65;;;3.60;99.90;;;;;;5037452;28;20055;-79
2022/01/20 09:40:43;;;;;;;3.40;1.48;;;3.60;99.90;;;;;;5070055;28;20119;-78
2022/01/20 09:43:11;;;;;;;6.78;2.28;;;3.50;99.90;;;;;;5037341;28;20452;-78
2022/01/20 09:45:37;;;;;;;3.75;1.65;;;3.40;99.90;;;;;;5035276;28;20037;-78
2022/01/20 09:48:03;;;;;;;4.50;1.73;;;3.40;99.90;;;;;;5036843;28;20504;-78
2022/01/20 09:50:29;;;;;;;4.55;2.03;;;3.40;99.90;;;;;;5065037;28;20061;-77
2022/01/20 09:53:01;;;;;;;3.50;2.13;;;3.50;99.90;;;;;;5036720;28;20240;-77
2022/01/20 09:55:28;;;;;;;4.53;2.10;;;3.60;99.90;;;;;;5039669;28;20041;-78
2022/01/20 09:57:54;;;;;;;10.07;2.50;;;3.70;99.90;;;;;;5033341;28;20063;-80
2022/01/20 10:00:20;;;;;;;5.40;2.13;;;3.70;99.90;;;;;;5069641;28;20079;-80
2022/01/20 10:03:12;;;;;;;7.13;2.20;;;3.80;99.90;;;;;;5033934;28;20052;-81
2022/01/20 10:05:44;;;;;;;9.35;3.72;;;4.00;99.90;;;;;;5034294;28;20123;-76
2022/01/20 10:08:21;;;;;;;13.38;3.47;;;4.20;99.90;;;;;;5066208;28;20587;-78
2022/01/20 10:11:00;;;;;;;9.77;2.47;;;4.30;99.90;;;;;;5028942;28;20127;-75
2022/01/20 10:13:37;;;;;;;5.70;2.42;;;4.30;99.90;;;;;;5070649;28;20514;-77
2022/01/20 10:16:12;;;;;;;13.48;3.47;;;4.40;99.90;;;;;;5035843;28;20051;-74
2022/01/20 10:18:51;;;;;;;5.25;2.30;;;4.40;99.90;;;;;;5032477;28;20111;-75
2022/01/20 10:21:18;;;;;;;5.80;2.60;;;4.60;99.90;;;;;;5032777;28;20080;-77
2022/01/20 10:23:47;;;;;;;12.85;2.63;;;4.80;99.90;;;;;;5031895;28;20057;-77
2022/01/20 10:26:21;;;;;;;6.72;3.10;;;5.00;99.90;;;;;;5036206;28;20151;-76
2022/01/20 10:28:50;;;;;;;10.38;2.38;;;5.00;99.90;;;;;;5033065;28;20133;-78
2022/01/20 10:31:19;;;;;;;5.50;3.05;;;5.00;99.90;;;;;;5033899;28;20063;-76
2022/01/20 10:33:46;;;;;;;11.07;2.63;;;5.10;99.90;;;;;;5031149;28;20132;-77
2022/01/20 10:36:12;;;;;;;10.95;2.60;;;5.20;99.90;;;;;;5020264;28;20049;-77
2022/01/20 10:38:53;;;;;;;4.25;1.88;;;5.10;99.90;;;;;;5017239;28;20056;-79
2022/01/20 10:41:35;;;;;;;6.80;2.33;;;5.10;99.90;;;;;;5067762;28;20048;-78
2022/01/20 10:44:04;;;;;;;6.35;2.08;;;4.90;99.90;;;;;;5067763;28;20084;-76
2022/01/20 10:46:42;;;;;;;4.35;2.17;;;4.90;99.90;;;;;;5064452;28;20077;-78
2022/01/20 10:49:07;;;;;;;10.43;2.20;;;5.00;99.90;;;;;;5035381;28;20072;-77
2022/01/20 10:51:33;;;;;;;6.82;2.38;;;5.00;99.90;;;;;;5035358;28;20148;-77
2022/01/20 10:54:13;;;;;;;7.03;2.65;;;5.00;99.90;;;;;;5067153;28;20049;-77
2022/01/20 10:56:50;;;;;;;8.85;3.45;;;5.00;99.90;;;;;;5032354;28;20126;-78
2022/01/20 10:59:16;;;;;;;13.43;3.28;;;4.50;99.90;;;;;;5035175;28;20045;-78
2022/01/20 11:01:41;;;;;;;4.60;1.95;;;5.00;99.90;;;;;;5036778;28;20397;-77
2022/01/20 11:04:08;;;;;;;6.68;3.35;;;5.20;99.90;;;;;;5035539;28;20056;-77
2022/01/20 11:06:36;;;;;;;7.35;2.58;;;5.20;99.90;;;;;;5069837;28;20091;-77
2022/01/20 11:09:05;;;;;;;6.00;2.08;;;5.20;99.90;;;;;;5068745;28;20053;-77
2022/01/20 11:11:30;;;;;;;5.97;2.90;;;5.20;99.90;;;;;;5037524;28;20052;-77
2022/01/20 11:13:56;;;;;;;7.90;2.53;;;5.20;99.90;;;;;;5037261;28;20060;-77
2022/01/20 11:16:22;;;;;;;10.13;3.08;;;5.20;99.90;;;;;;5032470;28;20067;-78
2022/01/20 11:18:48;;;;;;;9.27;2.65;;;5.20;99.90;;;;;;5031780;28;20044;-76
2022/01/20 11:21:25;;;;;;;4.72;2.28;;;5.20;99.90;;;;;;5036255;28;20037;-80
2022/01/20 11:23:51;;;;;;;6.90;2.80;;;5.30;99.90;;;;;;5032532;28;20126;-78
2022/01/20 11:26:16;;;;;;;11.98;4.25;;;5.30;99.90;;;;;;5034791;28;20044;-77
2022/01/20 11:28:58;;;;;;;6.65;2.88;;;5.30;99.90;;;;;;5031051;28;20052;-75
2022/01/20 11:31:34;;;;;;;6.43;2.58;;;5.20;99.90;;;;;;5062365;28;20059;-76
2022/01/20 11:33:59;;;;;;;7.28;2.40;;;5.20;99.90;;;;;;5062756;28;20069;-77
2022/01/20 11:36:31;;;;;;;10.82;3.47;;;5.10;99.90;;;;;;5064347;28;20045;-77
2022/01/20 11:39:03;;;;;;;6.82;2.67;;;5.10;99.90;;;;;;5032452;28;20126;-77
2022/01/20 11:41:43;;;;;;;7.10;2.80;;;5.10;99.90;;;;;;5031468;28;20143;-78
2022/01/20 11:44:26;;;;;;;8.98;3.88;;;5.10;99.90;;;;;;5031138;28;20049;-76
2022/01/20 11:46:53;;;;;;;7.32;2.85;;;5.10;99.90;;;;;;5032548;28;20044;-79
2022/01/20 11:49:22;;;;;;;10.98;4.05;;;5.20;99.90;;;;;;5036396;28;20041;-79
2022/01/20 11:51:55;;;;;;;10.98;3.53;;;5.30;99.90;;;;;;5063307;28;20567;-77
2022/01/20 11:54:23;;;;;;;8.63;2.35;;;5.20;99.90;;;;;;4679343;28;10000088;-78
2022/01/20 11:56:50;;;;;;;4.45;1.98;;;5.10;99.90;;;;;;5025965;28;20268;-77
2022/01/20 11:59:17;;;;;;;7.38;1.98;;;5.00;99.90;;;;;;5027039;28;20116;-81
2022/01/20 12:01:43;;;;;;;6.10;2.15;;;4.80;99.90;;;;;;5062160;28;20453;-80
2022/01/20 12:04:09;;;;;;;4.50;2.63;;;4.60;99.90;;;;;;5026429;28;20412;-81
2022/01/20 12:06:43;;;;;;;5.60;2.33;;;4.50;99.90;;;;;;5028913;28;20831;-80
2022/01/20 12:09:08;;;;;;;9.70;3.78;;;4.40;99.90;;;;;;5058792;28;20049;-80
2022/01/20 12:11:45;;;;;;;5.22;2.22;;;4.40;99.90;;;;;;5058759;28;20126;-80
2022/01/20 12:14:10;;;;;;;5.38;2.50;;;4.40;99.90;;;;;;5023680;28;20884;-81
2022/01/20 12:16:38;;;;;;;5.85;3.55;;;4.50;99.90;;;;;;5028397;28;20108;-79
2022/01/20 12:19:08;;;;;;;9.07;3.08;;;4.70;99.90;;;;;;5028240;28;20420;-78
2022/01/20 12:21:35;;;;;;;9.00;3.38;;;4.80;99.90;;;;;;5044315;28;20053;-80
2022/01/20 12:24:01;;;;;;;8.45;2.95;;;4.80;99.90;;;;;;5028577;28;20882;-79
2022/01/20 12:26:26;;;;;;;7.70;3.05;;;4.80;99.90;;;;;;5034076;28;20112;-80
2022/01/20 12:29:03;;;;;;;4.13;2.20;;;4.80;99.90;;;;;;5033970;28;20041;-81
2022/01/20 12:31:29;;;;;;;5.97;2.28;;;5.00;99.90;;;;;;5033591;28;20534;-80
2022/01/20 12:33:54;;;;;;;8.90;3.90;;;4.80;99.90;;;;;;5033794;28;20045;-80
2022/01/20 12:36:20;;;;;;;3.65;2.13;;;4.90;99.90;;;;;;5031714;28;20149;-80
2022/01/20 12:38:47;;;;;;;6.88;2.47;;;5.00;99.90;;;;;;5032415;28;20045;-73
2022/01/20 12:41:23;;;;;;;4.95;1.90;;;5.00;99.90;;;;;;5034512;28;20048;-79
2022/01/20 12:44:05;;;;;;;7.13;2.60;;;5.00;99.90;;;;;;5028844;28;20051;-81
2022/01/20 12:46:33;;;;;;;4.97;2.00;;;5.10;99.90;;;;;;5031336;28;20045;-80
2022/01/20 12:49:16;;;;;;;12.15;2.60;;;5.20;99.90;;;;;;5033152;28;20069;-80
2022/01/20 12:51:53;;;;;;;8.70;2.67;;;5.30;99.90;;;;;;5033411;28;20100;-80
2022/01/20 12:54:27;;;;;;;7.63;3.22;;;5.20;99.90;;;;;;5064856;28;20049;-81
2022/01/20 12:56:58;;;;;;;10.05;4.05;;;5.30;99.90;;;;;;5033158;28;20055;-81
2022/01/20 12:59:27;;;;;;;9.70;3.90;;;5.30;99.90;;;;;;5030542;28;20594;-80
2022/01/20 13:02:23;;;;;;;6.50;2.28;;;5.40;99.90;;;;;;4335513;28;10000792;-80
2022/01/20 13:04:55;;;;;;;4.53;2.53;;;5.40;99.90;;;;;;5027543;28;20045;-80
2022/01/20 13:07:21;;;;;;;10.85;3.72;;;5.40;99.90;;;;;;5063030;28;20052;-80
2022/01/20 13:09:53;;;;;;;11.35;3.72;;;5.40;99.90;;;;;;5032254;28;20041;-79
2022/01/20 13:12:39;;;;;;;18.63;4.82;;;5.40;99.90;;;;;;5032635;28;20048;-80
2022/01/20 13:15:19;;;;;;;8.70;2.47;;;5.40;99.90;;;;;;5032785;28;20056;-79
2022/01/20 13:17:46;;;;;;;8.20;2.30;;;5.50;99.90;;;;;;5066206;28;20044;-80
2022/01/20 13:20:15;;;;;;;10.75;3.85;;;5.60;99.90;;;;;;5031510;28;20126;-78
2022/01/20 13:22:56;;;;;;;9.27;3.28;;;5.60;99.90;;;;;;5065061;28;20048;-79
2022/01/20 13:25:27;;;;;;;10.48;2.55;;;5.50;99.90;;;;;;5034717;28;20037;-81
2022/01/20 13:27:59;;;;;;;9.95;3.08;;;4.80;99.90;;;;;;5047646;28;20508;-81
2022/01/20 13:30:31;;;;;;;3.95;2.10;;;4.60;99.90;;;;;;5066243;28;20057;-80
2022/01/20 13:32:58;;;;;;;5.93;2.20;;;4.50;99.90;;;;;;5031059;28;20045;-80
2022/01/20 13:35:24;;;;;;;3.05;2.53;;;4.40;99.90;;;;;;5033618;28;20296;-81
2022/01/20 13:37:58;;;;;;;4.43;1.73;;;4.40;99.90;;;;;;5031822;28;20590;-78
2022/01/20 13:40:23;;;;;;;2.42;1.23;;;4.40;99.90;;;;;;5067251;28;20547;-81
2022/01/20 13:45:43;;;;;;;2.80;1.60;;;4.40;99.90;;;;;;5028565;28;20558;-79
2022/01/20 13:48:10;;;;;;;3.08;1.45;;;4.40;99.90;;;;;;5065737;28;20060;-81
2022/01/20 13:50:38;;;;;;;3.00;1.48;;;4.50;99.90;;;;;;5029687;28;20081;-82
2022/01/20 13:53:19;;;;;;;5.97;2.53;;;4.50;99.90;;;;;;5035216;28;20044;-81
2022/01/20 13:55:47;;;;;;;3.53;2.03;;;4.40;99.90;;;;;;5064501;28;20124;-81
2022/01/20 13:58:34;;;;;;;4.15;2.13;;;4.30;99.90;;;;;;5029916;28;20033;-81
2022/01/20 14:01:09;;;;;;;6.43;2.22;;;4.20;99.90;;;;;;5066318;28;20045;-82
2022/01/20 14:03:35;;;;;;;4.80;2.10;;;4.20;99.90;;;;;;5029823;28;20056;-77
2022/01/20 14:06:02;;;;;;;5.55;1.55;;;3.60;99.90;;;;;;5033189;28;20049;-80
2022/01/20 14:08:28;;;;;;;3.22;2.13;;;4.30;99.90;;;;;;5025788;28;20163;-80
2022/01/20 14:10:54;;;;;;;4.57;2.25;;;4.40;99.90;;;;;;5024248;28;20519;-80